WCG2038 EPKT-EPGD
Flight info
| Callsign | WCG2038 |
|---|---|
| Flight time | 0h 43m |
| Altitude | 36000 |
| Route | NAVUR N744 OVBOR N133 GRUDA/N0445F350 Z95 OSLOG |
| Aircraft | A321/M-SDE3FGHIRWY/LB1 |
Departure
| Time | 2026-05-04 19:36 |
|---|---|
| Airport | Katowice Wojciech Korfanty International Airport (EPKT) |
Arrival
| Time | 2026-05-04 20:20 |
|---|---|
| Airport | Gdańsk Lech Wałęsa Airport (EPGD) |
| Time | Latitude | Longitude | Altitude | Speed | Heading |
|---|---|---|---|---|---|
| 2026-05-04 19:05 | 50.47144 | 19.09500 | 999 ft | 0 kts | 180° |
| 2026-05-04 19:24 | 50.47153 | 19.09500 | 999 ft | 4 kts | 179° |
| 2026-05-04 19:25 | 50.47180 | 19.09497 | 1001 ft | 4 kts | 170° |
| 2026-05-04 19:25 | 50.47206 | 19.09487 | 1001 ft | 4 kts | 155° |
| 2026-05-04 19:25 | 50.47226 | 19.09464 | 999 ft | 4 kts | 117° |
| 2026-05-04 19:25 | 50.47230 | 19.09448 | 999 ft | 0 kts | 90° |
| 2026-05-04 19:31 | 50.47230 | 19.09458 | 999 ft | 3 kts | 90° |
| 2026-05-04 19:31 | 50.47230 | 19.09523 | 999 ft | 8 kts | 90° |
| 2026-05-04 19:31 | 50.47229 | 19.09632 | 1004 ft | 12 kts | 90° |
| 2026-05-04 19:31 | 50.47228 | 19.09775 | 1000 ft | 14 kts | 90° |
| 2026-05-04 19:32 | 50.47227 | 19.09943 | 999 ft | 16 kts | 89° |
| 2026-05-04 19:32 | 50.47277 | 19.10107 | 1002 ft | 18 kts | 53° |
| 2026-05-04 19:32 | 50.47351 | 19.10256 | 999 ft | 13 kts | 52° |
| 2026-05-04 19:32 | 50.47399 | 19.10351 | 999 ft | 7 kts | 52° |
| 2026-05-04 19:33 | 50.47407 | 19.10367 | 999 ft | 0 kts | 52° |
| 2026-05-04 19:34 | 50.47409 | 19.10371 | 999 ft | 1 kts | 52° |
| 2026-05-04 19:34 | 50.47423 | 19.10398 | 999 ft | 6 kts | 50° |
| 2026-05-04 19:34 | 50.47496 | 19.10447 | 1004 ft | 16 kts | 6° |
| 2026-05-04 19:35 | 50.47588 | 19.10364 | 1000 ft | 17 kts | 286° |
| 2026-05-04 19:35 | 50.47595 | 19.10194 | 1003 ft | 0 kts | 270° |
| 2026-05-04 19:35 | 50.47595 | 19.10189 | 998 ft | 3 kts | 270° |
| 2026-05-04 19:35 | 50.47596 | 19.09846 | 999 ft | 72 kts | 270° |
| 2026-05-04 19:36 | 50.47595 | 19.08655 | 1000 ft | 143 kts | 269° |
| 2026-05-04 19:36 | 50.47607 | 19.06890 | 1415 ft | 165 kts | 269° |
| 2026-05-04 19:36 | 50.47623 | 19.05097 | 2301 ft | 161 kts | 268° |
| 2026-05-04 19:36 | 50.47616 | 19.03331 | 2963 ft | 170 kts | 265° |
| 2026-05-04 19:37 | 50.47605 | 19.01363 | 3284 ft | 191 kts | 266° |
| 2026-05-04 19:37 | 50.47601 | 18.99143 | 3537 ft | 214 kts | 266° |
| 2026-05-04 19:37 | 50.47631 | 18.96691 | 3957 ft | 232 kts | 275° |
| 2026-05-04 19:37 | 50.48350 | 18.94380 | 4796 ft | 247 kts | 312° |
| 2026-05-04 19:38 | 50.49891 | 18.93023 | 5429 ft | 269 kts | 341° |
| 2026-05-04 19:38 | 50.51791 | 18.92891 | 6064 ft | 286 kts | 11° |
| 2026-05-04 19:38 | 50.53676 | 18.93993 | 6913 ft | 290 kts | 19° |
| 2026-05-04 19:38 | 50.55620 | 18.94899 | 7715 ft | 292 kts | 10° |
| 2026-05-04 19:39 | 50.57629 | 18.95505 | 8540 ft | 295 kts | 7° |
| 2026-05-04 19:39 | 50.59660 | 18.96030 | 9356 ft | 298 kts | 7° |
| 2026-05-04 19:39 | 50.61721 | 18.96585 | 10136 ft | 302 kts | 8° |
| 2026-05-04 19:39 | 50.63850 | 18.97213 | 10509 ft | 322 kts | 9° |
| 2026-05-04 19:40 | 50.66120 | 18.97938 | 10697 ft | 345 kts | 9° |
| 2026-05-04 19:40 | 50.68555 | 18.98759 | 10836 ft | 368 kts | 10° |
| 2026-05-04 19:40 | 50.71114 | 18.99661 | 11159 ft | 383 kts | 11° |
| 2026-05-04 19:40 | 50.73730 | 19.00604 | 11743 ft | 388 kts | 11° |
| 2026-05-04 19:41 | 50.76350 | 19.01555 | 12362 ft | 393 kts | 11° |
| 2026-05-04 19:41 | 50.79033 | 19.02526 | 12980 ft | 397 kts | 11° |
| 2026-05-04 19:41 | 50.81753 | 19.03502 | 13599 ft | 402 kts | 10° |
| 2026-05-04 19:41 | 50.84481 | 19.04477 | 14177 ft | 406 kts | 9° |
| 2026-05-04 19:42 | 50.87285 | 19.04927 | 14764 ft | 404 kts | 355° |
| 2026-05-04 19:42 | 50.90100 | 19.04688 | 15382 ft | 406 kts | 354° |
| 2026-05-04 19:42 | 50.92924 | 19.04423 | 15987 ft | 408 kts | 354° |
| 2026-05-04 19:42 | 50.95773 | 19.04147 | 16574 ft | 410 kts | 354° |
| 2026-05-04 19:43 | 50.98643 | 19.03864 | 17158 ft | 413 kts | 354° |
| 2026-05-04 19:43 | 51.01535 | 19.03580 | 17733 ft | 416 kts | 354° |
| 2026-05-04 19:43 | 51.04393 | 19.03301 | 18278 ft | 418 kts | 354° |
| 2026-05-04 19:43 | 51.07303 | 19.03021 | 18798 ft | 419 kts | 354° |
| 2026-05-04 19:44 | 51.10206 | 19.02742 | 19411 ft | 417 kts | 354° |
| 2026-05-04 19:44 | 51.13115 | 19.02460 | 20033 ft | 416 kts | 354° |
| 2026-05-04 19:44 | 51.16001 | 19.02182 | 20696 ft | 414 kts | 354° |
| 2026-05-04 19:44 | 51.18843 | 19.01907 | 21351 ft | 412 kts | 354° |
| 2026-05-04 19:45 | 51.21698 | 19.01631 | 22037 ft | 410 kts | 354° |
| 2026-05-04 19:45 | 51.24543 | 19.01352 | 22725 ft | 407 kts | 354° |
| 2026-05-04 19:45 | 51.27361 | 19.01082 | 23437 ft | 404 kts | 354° |
| 2026-05-04 19:45 | 51.30160 | 19.00815 | 24049 ft | 401 kts | 354° |
| 2026-05-04 19:46 | 51.32935 | 19.00548 | 24663 ft | 397 kts | 354° |
| 2026-05-04 19:46 | 51.35680 | 19.00280 | 25285 ft | 393 kts | 353° |
| 2026-05-04 19:46 | 51.38372 | 19.00013 | 25918 ft | 389 kts | 353° |
| 2026-05-04 19:46 | 51.41058 | 18.99746 | 26573 ft | 385 kts | 353° |
| 2026-05-04 19:47 | 51.43729 | 18.99479 | 27246 ft | 380 kts | 353° |
| 2026-05-04 19:47 | 51.46222 | 18.99231 | 27896 ft | 374 kts | 353° |
| 2026-05-04 19:47 | 51.48803 | 18.98976 | 28600 ft | 368 kts | 353° |
| 2026-05-04 19:47 | 51.51367 | 18.98720 | 29165 ft | 367 kts | 353° |
| 2026-05-04 19:48 | 51.53910 | 18.98468 | 29725 ft | 364 kts | 353° |
| 2026-05-04 19:48 | 51.56439 | 18.98220 | 30204 ft | 364 kts | 352° |
| 2026-05-04 19:48 | 51.58953 | 18.97972 | 30482 ft | 367 kts | 352° |
| 2026-05-04 19:48 | 51.61518 | 18.97715 | 30736 ft | 371 kts | 352° |
| 2026-05-04 19:49 | 51.64125 | 18.97451 | 30987 ft | 375 kts | 352° |
| 2026-05-04 19:49 | 51.66759 | 18.97188 | 31243 ft | 379 kts | 352° |
| 2026-05-04 19:49 | 51.69378 | 18.96928 | 31495 ft | 383 kts | 352° |
| 2026-05-04 19:49 | 51.72055 | 18.96662 | 31758 ft | 387 kts | 352° |
| 2026-05-04 19:50 | 51.74758 | 18.96395 | 32019 ft | 390 kts | 352° |
| 2026-05-04 19:50 | 51.77485 | 18.96126 | 32283 ft | 394 kts | 352° |
| 2026-05-04 19:50 | 51.80233 | 18.95852 | 32554 ft | 397 kts | 352° |
| 2026-05-04 19:50 | 51.83014 | 18.95575 | 32823 ft | 401 kts | 352° |
| 2026-05-04 19:51 | 51.85778 | 18.95297 | 33091 ft | 404 kts | 352° |
| 2026-05-04 19:51 | 51.88596 | 18.95014 | 33361 ft | 407 kts | 352° |
| 2026-05-04 19:51 | 51.91432 | 18.94728 | 33642 ft | 410 kts | 352° |
| 2026-05-04 19:51 | 51.94296 | 18.94443 | 33937 ft | 412 kts | 352° |
| 2026-05-04 19:52 | 51.97147 | 18.94163 | 34411 ft | 409 kts | 352° |
| 2026-05-04 19:52 | 51.99970 | 18.93886 | 34870 ft | 405 kts | 352° |
| 2026-05-04 19:52 | 52.02783 | 18.93611 | 35242 ft | 403 kts | 352° |
| 2026-05-04 19:52 | 52.05580 | 18.93332 | 35628 ft | 401 kts | 352° |
| 2026-05-04 19:53 | 52.08361 | 18.93050 | 35893 ft | 402 kts | 352° |
| 2026-05-04 19:53 | 52.14003 | 18.92459 | 35942 ft | 415 kts | 352° |
| 2026-05-04 19:54 | 52.19893 | 18.91851 | 35942 ft | 431 kts | 353° |
| 2026-05-04 19:54 | 52.26011 | 18.91538 | 35943 ft | 446 kts | 355° |
| 2026-05-04 19:55 | 52.32267 | 18.91435 | 35947 ft | 450 kts | 355° |
| 2026-05-04 19:55 | 52.38495 | 18.91306 | 35946 ft | 450 kts | 355° |
| 2026-05-04 19:56 | 52.44760 | 18.91090 | 35950 ft | 450 kts | 354° |
| 2026-05-04 19:56 | 52.51025 | 18.90844 | 35948 ft | 450 kts | 354° |
| 2026-05-04 19:57 | 52.57251 | 18.90611 | 35957 ft | 451 kts | 354° |
| 2026-05-04 19:57 | 52.63557 | 18.90394 | 35969 ft | 451 kts | 354° |
| 2026-05-04 19:58 | 52.69847 | 18.90182 | 35969 ft | 451 kts | 354° |
| 2026-05-04 19:58 | 52.76101 | 18.89966 | 35967 ft | 452 kts | 354° |
| 2026-05-04 19:59 | 52.82399 | 18.89739 | 35970 ft | 452 kts | 354° |
| 2026-05-04 19:59 | 52.88655 | 18.88983 | 35972 ft | 443 kts | 339° |
| 2026-05-04 19:59 | 52.91430 | 18.87070 | 35973 ft | 435 kts | 328° |
| 2026-05-04 20:00 | 52.94095 | 18.84693 | 35971 ft | 435 kts | 327° |
| 2026-05-04 20:00 | 52.99414 | 18.79855 | 35941 ft | 436 kts | 327° |
| 2026-05-04 20:00 | 53.02076 | 18.77438 | 35396 ft | 433 kts | 327° |
| 2026-05-04 20:01 | 53.04701 | 18.75082 | 34739 ft | 420 kts | 327° |
| 2026-05-04 20:01 | 53.07222 | 18.72857 | 34065 ft | 411 kts | 327° |
| 2026-05-04 20:01 | 53.09739 | 18.70696 | 33257 ft | 403 kts | 330° |
| 2026-05-04 20:01 | 53.12435 | 18.69374 | 32445 ft | 407 kts | 348° |
| 2026-05-04 20:02 | 53.15263 | 18.69415 | 31665 ft | 406 kts | 359° |
| 2026-05-04 20:02 | 53.18058 | 18.69796 | 30882 ft | 399 kts | 359° |
| 2026-05-04 20:02 | 53.20816 | 18.70154 | 30046 ft | 395 kts | 358° |
| 2026-05-04 20:02 | 53.23546 | 18.70498 | 29086 ft | 391 kts | 358° |
| 2026-05-04 20:03 | 53.26242 | 18.70832 | 28149 ft | 387 kts | 359° |
| 2026-05-04 20:03 | 53.28895 | 18.71162 | 27262 ft | 386 kts | 359° |
| 2026-05-04 20:03 | 53.31572 | 18.71499 | 26461 ft | 384 kts | 359° |
| 2026-05-04 20:03 | 53.34226 | 18.71843 | 25758 ft | 380 kts | 359° |
| 2026-05-04 20:04 | 53.36848 | 18.72187 | 25075 ft | 376 kts | 359° |
| 2026-05-04 20:04 | 53.38566 | 18.72413 | 24633 ft | 373 kts | 359° |
| 2026-05-04 20:04 | 53.41151 | 18.72753 | 23967 ft | 369 kts | 360° |
| 2026-05-04 20:04 | 53.44524 | 18.73196 | 23032 ft | 364 kts | 360° |
| 2026-05-04 20:05 | 53.46227 | 18.73419 | 22518 ft | 362 kts | 360° |
| 2026-05-04 20:05 | 53.48695 | 18.73741 | 21783 ft | 358 kts | 359° |
| 2026-05-04 20:05 | 53.51177 | 18.74065 | 21065 ft | 355 kts | 359° |
| 2026-05-04 20:05 | 53.53632 | 18.74386 | 20365 ft | 352 kts | 359° |
| 2026-05-04 20:06 | 53.56063 | 18.74703 | 19670 ft | 348 kts | 359° |
| 2026-05-04 20:06 | 53.58467 | 18.75019 | 18994 ft | 345 kts | 359° |
| 2026-05-04 20:06 | 53.60858 | 18.75331 | 18335 ft | 342 kts | 359° |
| 2026-05-04 20:06 | 53.63223 | 18.75642 | 17596 ft | 339 kts | 359° |
| 2026-05-04 20:07 | 53.65542 | 18.75949 | 16871 ft | 336 kts | 359° |
| 2026-05-04 20:07 | 53.67876 | 18.76259 | 16150 ft | 334 kts | 359° |
| 2026-05-04 20:07 | 53.70185 | 18.76566 | 15442 ft | 331 kts | 360° |
| 2026-05-04 20:07 | 53.72474 | 18.76870 | 14759 ft | 328 kts | 360° |
| 2026-05-04 20:08 | 53.74725 | 18.77171 | 14089 ft | 326 kts | 360° |
| 2026-05-04 20:08 | 53.76979 | 18.77472 | 13386 ft | 324 kts | 360° |
| 2026-05-04 20:08 | 53.79225 | 18.77772 | 12653 ft | 322 kts | 360° |
| 2026-05-04 20:08 | 53.81456 | 18.78069 | 11930 ft | 320 kts | 360° |
| 2026-05-04 20:09 | 53.83671 | 18.78363 | 11225 ft | 317 kts | 360° |
| 2026-05-04 20:09 | 53.85865 | 18.78653 | 10537 ft | 315 kts | 359° |
| 2026-05-04 20:09 | 53.88005 | 18.78937 | 10086 ft | 305 kts | 359° |
| 2026-05-04 20:09 | 53.90095 | 18.79220 | 9787 ft | 299 kts | 359° |
| 2026-05-04 20:10 | 53.92165 | 18.79495 | 9440 ft | 298 kts | 359° |
| 2026-05-04 20:10 | 53.94231 | 18.79767 | 9113 ft | 294 kts | 359° |
| 2026-05-04 20:10 | 53.96272 | 18.80038 | 8765 ft | 292 kts | 359° |
| 2026-05-04 20:10 | 53.98268 | 18.80306 | 8435 ft | 290 kts | 359° |
| 2026-05-04 20:11 | 54.00274 | 18.80575 | 8100 ft | 288 kts | 359° |
| 2026-05-04 20:11 | 54.02277 | 18.80843 | 7780 ft | 286 kts | 359° |
| 2026-05-04 20:11 | 54.04266 | 18.81108 | 7453 ft | 284 kts | 359° |
| 2026-05-04 20:11 | 54.06203 | 18.81367 | 7136 ft | 282 kts | 359° |
| 2026-05-04 20:12 | 54.08159 | 18.81633 | 6822 ft | 280 kts | 360° |
| 2026-05-04 20:12 | 54.10105 | 18.81896 | 6538 ft | 279 kts | 359° |
| 2026-05-04 20:12 | 54.12037 | 18.82159 | 6273 ft | 278 kts | 359° |
| 2026-05-04 20:12 | 54.13959 | 18.82422 | 5993 ft | 277 kts | 359° |
| 2026-05-04 20:13 | 54.15881 | 18.82685 | 5711 ft | 274 kts | 360° |
| 2026-05-04 20:13 | 54.17739 | 18.82941 | 5435 ft | 269 kts | 359° |
| 2026-05-04 20:13 | 54.19581 | 18.83191 | 5211 ft | 262 kts | 359° |
| 2026-05-04 20:13 | 54.21373 | 18.83433 | 5007 ft | 254 kts | 359° |
| 2026-05-04 20:14 | 54.23114 | 18.83669 | 4810 ft | 247 kts | 359° |
| 2026-05-04 20:14 | 54.24804 | 18.83901 | 4602 ft | 239 kts | 359° |
| 2026-05-04 20:14 | 54.26403 | 18.83761 | 4414 ft | 221 kts | 341° |
| 2026-05-04 20:14 | 54.27775 | 18.82842 | 4215 ft | 205 kts | 324° |
| 2026-05-04 20:15 | 54.28848 | 18.81335 | 4058 ft | 197 kts | 307° |
| 2026-05-04 20:15 | 54.29588 | 18.79396 | 4000 ft | 193 kts | 291° |
| 2026-05-04 20:15 | 54.30118 | 18.77274 | 3949 ft | 194 kts | 291° |
| 2026-05-04 20:15 | 54.30636 | 18.75220 | 3751 ft | 184 kts | 291° |
| 2026-05-04 20:16 | 54.31126 | 18.73271 | 3526 ft | 174 kts | 291° |
| 2026-05-04 20:16 | 54.31598 | 18.71384 | 3308 ft | 172 kts | 291° |
| 2026-05-04 20:16 | 54.32070 | 18.69496 | 3079 ft | 171 kts | 291° |
| 2026-05-04 20:16 | 54.32538 | 18.67621 | 2867 ft | 171 kts | 291° |
| 2026-05-04 20:17 | 54.33007 | 18.65741 | 2624 ft | 171 kts | 291° |
| 2026-05-04 20:17 | 54.33475 | 18.63867 | 2395 ft | 168 kts | 291° |
| 2026-05-04 20:17 | 54.33913 | 18.62109 | 2172 ft | 160 kts | 291° |
| 2026-05-04 20:17 | 54.34346 | 18.60371 | 1955 ft | 157 kts | 291° |
| 2026-05-04 20:18 | 54.34770 | 18.58668 | 1753 ft | 148 kts | 291° |
| 2026-05-04 20:18 | 54.35156 | 18.57119 | 1554 ft | 136 kts | 291° |
| 2026-05-04 20:18 | 54.35520 | 18.55653 | 1365 ft | 131 kts | 291° |
| 2026-05-04 20:18 | 54.35873 | 18.54236 | 1180 ft | 130 kts | 292° |
| 2026-05-04 20:19 | 54.36228 | 18.52808 | 963 ft | 130 kts | 292° |
| 2026-05-04 20:19 | 54.36586 | 18.51371 | 822 ft | 131 kts | 293° |
| 2026-05-04 20:19 | 54.36933 | 18.49935 | 635 ft | 130 kts | 294° |
| 2026-05-04 20:19 | 54.37290 | 18.48523 | 486 ft | 121 kts | 292° |
| 2026-05-04 20:20 | 54.37562 | 18.47412 | 465 ft | 77 kts | 293° |
| 2026-05-04 20:20 | 54.37707 | 18.46820 | 455 ft | 37 kts | 292° |
| 2026-05-04 20:20 | 54.37792 | 18.46486 | 458 ft | 29 kts | 294° |
| 2026-05-04 20:20 | 54.37869 | 18.46179 | 458 ft | 28 kts | 291° |
| 2026-05-04 20:21 | 54.37969 | 18.45894 | 456 ft | 28 kts | 311° |
| 2026-05-04 20:21 | 54.38087 | 18.45732 | 455 ft | 13 kts | 327° |
| 2026-05-04 20:21 | 54.38122 | 18.45881 | 457 ft | 11 kts | 114° |
| 2026-05-04 20:22 | 54.38093 | 18.45991 | 460 ft | 10 kts | 114° |
| 2026-05-04 20:22 | 54.38062 | 18.46115 | 457 ft | 13 kts | 113° |
| 2026-05-04 20:22 | 54.38025 | 18.46266 | 460 ft | 15 kts | 112° |
| 2026-05-04 20:22 | 54.37983 | 18.46441 | 460 ft | 17 kts | 112° |
| 2026-05-04 20:23 | 54.37932 | 18.46640 | 459 ft | 19 kts | 114° |
| 2026-05-04 20:23 | 54.37883 | 18.46835 | 460 ft | 12 kts | 112° |
| 2026-05-04 20:23 | 54.37898 | 18.46968 | 460 ft | 13 kts | 33° |
| 2026-05-04 20:23 | 54.37965 | 18.47050 | 459 ft | 12 kts | 66° |
| 2026-05-04 20:24 | 54.37942 | 18.47185 | 459 ft | 9 kts | 113° |
| 2026-05-04 20:24 | 54.37922 | 18.47266 | 460 ft | 8 kts | 112° |
| 2026-05-04 20:24 | 54.37909 | 18.47346 | 460 ft | 5 kts | 79° |
| 2026-05-04 20:24 | 54.37935 | 18.47359 | 459 ft | 4 kts | 1° |
| 2026-05-04 20:25 | 54.37949 | 18.47358 | 460 ft | 0 kts | 354° |